sensor_id;sensor_type;location;lat;lon;timestamp;pressure;altitude;pressure_sealevel;temperature;humidity
58967;BME280;44744;51.894;5.080;2023-01-01T00:00:24;100820.35;;;14.04;61.72
58967;BME280;44744;51.894;5.080;2023-01-01T00:01:25;100813.27;;;14.03;61.71
58967;BME280;44744;51.894;5.080;2023-01-01T00:02:26;100811.92;;;14.02;61.78
58967;BME280;44744;51.894;5.080;2023-01-01T00:03:26;100811.80;;;14.02;61.93
58967;BME280;44744;51.894;5.080;2023-01-01T00:04:26;100808.30;;;14.00;61.99
58967;BME280;44744;51.894;5.080;2023-01-01T00:05:29;100807.17;;;14.02;61.29
58967;BME280;44744;51.894;5.080;2023-01-01T00:06:29;100807.71;;;14.02;61.47
58967;BME280;44744;51.894;5.080;2023-01-01T00:07:29;100804.46;;;14.02;61.34
58967;BME280;44744;51.894;5.080;2023-01-01T00:08:29;100807.67;;;14.02;61.71
58967;BME280;44744;51.894;5.080;2023-01-01T00:09:29;100804.98;;;14.02;61.92
58967;BME280;44744;51.894;5.080;2023-01-01T00:10:30;100814.58;;;14.03;61.92
58967;BME280;44744;51.894;5.080;2023-01-01T00:11:30;100806.44;;;14.02;61.64
58967;BME280;44744;51.894;5.080;2023-01-01T00:12:31;100809.45;;;14.02;61.63
58967;BME280;44744;51.894;5.080;2023-01-01T00:13:35;100817.23;;;14.03;61.67
58967;BME280;44744;51.894;5.080;2023-01-01T00:14:35;100811.95;;;14.02;61.81
58967;BME280;44744;51.894;5.080;2023-01-01T00:15:35;100816.24;;;14.02;61.98
58967;BME280;44744;51.894;5.080;2023-01-01T00:16:35;100808.45;;;14.01;62.10
58967;BME280;44744;51.894;5.080;2023-01-01T00:17:36;100817.36;;;14.01;62.04
58967;BME280;44744;51.894;5.080;2023-01-01T00:18:36;100814.76;;;13.99;62.23
58967;BME280;44744;51.894;5.080;2023-01-01T00:19:36;100817.25;;;13.99;62.25
58967;BME280;44744;51.894;5.080;2023-01-01T00:20:36;100812.99;;;13.99;62.21
58967;BME280;44744;51.894;5.080;2023-01-01T00:21:36;100809.89;;;14.01;61.86
58967;BME280;44744;51.894;5.080;2023-01-01T00:22:37;100810.94;;;14.01;62.15
58967;BME280;44744;51.894;5.080;2023-01-01T00:23:37;100811.55;;;14.00;62.22
58967;BME280;44744;51.894;5.080;2023-01-01T00:24:37;100807.99;;;13.99;62.40
58967;BME280;44744;51.894;5.080;2023-01-01T00:25:40;100804.08;;;14.00;62.21
58967;BME280;44744;51.894;5.080;2023-01-01T00:26:41;100808.15;;;14.00;62.05
58967;BME280;44744;51.894;5.080;2023-01-01T00:27:41;100807.08;;;14.00;62.19
58967;BME280;44744;51.894;5.080;2023-01-01T00:28:41;100803.70;;;14.00;62.29
58967;BME280;44744;51.894;5.080;2023-01-01T00:29:42;100805.72;;;13.99;62.33
58967;BME280;44744;51.894;5.080;2023-01-01T00:30:42;100802.50;;;13.99;62.35
58967;BME280;44744;51.894;5.080;2023-01-01T00:31:42;100799.23;;;13.98;62.36
58967;BME280;44744;51.894;5.080;2023-01-01T00:32:44;100807.92;;;13.98;62.46
58967;BME280;44744;51.894;5.080;2023-01-01T00:33:45;100806.98;;;13.99;62.16
58967;BME280;44744;51.894;5.080;2023-01-01T00:34:49;100810.23;;;13.98;62.04
58967;BME280;44744;51.894;5.080;2023-01-01T00:35:49;100806.91;;;14.00;61.72
58967;BME280;44744;51.894;5.080;2023-01-01T00:36:49;100812.76;;;14.00;62.24
58967;BME280;44744;51.894;5.080;2023-01-01T00:37:49;100814.38;;;14.00;62.19
58967;BME280;44744;51.894;5.080;2023-01-01T00:40:04;100820.02;;;14.01;61.98
58967;BME280;44744;51.894;5.080;2023-01-01T00:41:07;100816.11;;;14.01;61.92
58967;BME280;44744;51.894;5.080;2023-01-01T00:42:07;100830.17;;;14.00;61.96
58967;BME280;44744;51.894;5.080;2023-01-01T00:43:10;100822.16;;;14.00;61.86
58967;BME280;44744;51.894;5.080;2023-01-01T00:44:10;100826.95;;;14.01;61.99
58967;BME280;44744;51.894;5.080;2023-01-01T00:45:10;100821.45;;;14.00;61.98
58967;BME280;44744;51.894;5.080;2023-01-01T00:46:10;100819.14;;;14.00;61.82
58967;BME280;44744;51.894;5.080;2023-01-01T00:47:11;100827.67;;;14.01;61.74
58967;BME280;44744;51.894;5.080;2023-01-01T00:48:11;100825.84;;;14.02;61.74
58967;BME280;44744;51.894;5.080;2023-01-01T00:49:11;100817.11;;;14.02;61.82
58967;BME280;44744;51.894;5.080;2023-01-01T00:50:14;100820.35;;;14.01;61.93
58967;BME280;44744;51.894;5.080;2023-01-01T00:51:14;100814.02;;;14.00;62.07
58967;BME280;44744;51.894;5.080;2023-01-01T00:52:14;100817.59;;;14.00;61.88
58967;BME280;44744;51.894;5.080;2023-01-01T00:53:14;100812.48;;;13.99;61.96
58967;BME280;44744;51.894;5.080;2023-01-01T00:54:15;100809.33;;;14.01;61.29
58967;BME280;44744;51.894;5.080;2023-01-01T00:55:15;100815.71;;;14.01;61.74
58967;BME280;44744;51.894;5.080;2023-01-01T00:56:15;100820.66;;;14.02;61.60
58967;BME280;44744;51.894;5.080;2023-01-01T00:57:15;100824.57;;;14.02;61.54
58967;BME280;44744;51.894;5.080;2023-01-01T00:58:21;100832.73;;;14.03;61.58
58967;BME280;44744;51.894;5.080;2023-01-01T00:59:22;100826.15;;;14.02;61.60
58967;BME280;44744;51.894;5.080;2023-01-01T01:00:22;100835.59;;;14.02;61.66
58967;BME280;44744;51.894;5.080;2023-01-01T01:01:22;100841.77;;;14.03;61.46
58967;BME280;44744;51.894;5.080;2023-01-01T01:02:22;100836.64;;;14.02;61.42
58967;BME280;44744;51.894;5.080;2023-01-01T01:03:23;100839.33;;;14.02;61.41
58967;BME280;44744;51.894;5.080;2023-01-01T01:04:23;100835.98;;;14.02;61.56
58967;BME280;44744;51.894;5.080;2023-01-01T01:05:24;100839.54;;;14.02;61.70
58967;BME280;44744;51.894;5.080;2023-01-01T01:06:24;100834.23;;;14.01;61.88
58967;BME280;44744;51.894;5.080;2023-01-01T01:07:24;100828.75;;;14.00;61.71
58967;BME280;44744;51.894;5.080;2023-01-01T01:08:28;100829.52;;;13.99;62.00
58967;BME280;44744;51.894;5.080;2023-01-01T01:09:31;100834.41;;;13.98;61.85
58967;BME280;44744;51.894;5.080;2023-01-01T01:10:31;100838.70;;;13.98;61.99
58967;BME280;44744;51.894;5.080;2023-01-01T01:11:31;100838.38;;;13.98;61.92
58967;BME280;44744;51.894;5.080;2023-01-01T01:12:35;100841.82;;;13.97;62.09
58967;BME280;44744;51.894;5.080;2023-01-01T01:13:35;100836.88;;;13.96;61.91
58967;BME280;44744;51.894;5.080;2023-01-01T01:14:35;100834.08;;;13.95;61.84
58967;BME280;44744;51.894;5.080;2023-01-01T01:15:36;100844.40;;;13.95;61.98
58967;BME280;44744;51.894;5.080;2023-01-01T01:16:37;100843.41;;;13.94;61.83
58967;BME280;44744;51.894;5.080;2023-01-01T01:17:37;100834.27;;;13.92;62.03
58967;BME280;44744;51.894;5.080;2023-01-01T01:18:37;100841.96;;;13.92;62.17
58967;BME280;44744;51.894;5.080;2023-01-01T01:19:37;100843.65;;;13.91;62.14
58967;BME280;44744;51.894;5.080;2023-01-01T01:20:38;100842.45;;;13.90;62.28
58967;BME280;44744;51.894;5.080;2023-01-01T01:21:38;100839.34;;;13.89;62.46
58967;BME280;44744;51.894;5.080;2023-01-01T01:22:38;100847.67;;;13.86;62.73
58967;BME280;44744;51.894;5.080;2023-01-01T01:23:39;100844.27;;;13.84;63.06
58967;BME280;44744;51.894;5.080;2023-01-01T01:24:39;100847.14;;;13.84;62.93
58967;BME280;44744;51.894;5.080;2023-01-01T01:25:39;100845.17;;;13.81;63.17
58967;BME280;44744;51.894;5.080;2023-01-01T01:26:39;100854.35;;;13.80;63.29
58967;BME280;44744;51.894;5.080;2023-01-01T01:27:39;100857.48;;;13.78;63.40
58967;BME280;44744;51.894;5.080;2023-01-01T01:28:39;100855.61;;;13.77;63.42
58967;BME280;44744;51.894;5.080;2023-01-01T01:29:40;100859.56;;;13.76;63.52
58967;BME280;44744;51.894;5.080;2023-01-01T01:30:40;100856.09;;;13.75;63.42
58967;BME280;44744;51.894;5.080;2023-01-01T01:31:40;100852.65;;;13.73;63.55
58967;BME280;44744;51.894;5.080;2023-01-01T01:32:40;100852.05;;;13.72;63.70
58967;BME280;44744;51.894;5.080;2023-01-01T01:33:44;100861.73;;;13.71;63.80
58967;BME280;44744;51.894;5.080;2023-01-01T01:34:44;100862.55;;;13.69;63.95
58967;BME280;44744;51.894;5.080;2023-01-01T01:35:49;100858.66;;;13.69;63.81
58967;BME280;44744;51.894;5.080;2023-01-01T01:36:49;100863.99;;;13.69;63.76
58967;BME280;44744;51.894;5.080;2023-01-01T01:37:49;100862.59;;;13.68;63.61
58967;BME280;44744;51.894;5.080;2023-01-01T01:38:49;100861.61;;;13.67;63.59
58967;BME280;44744;51.894;5.080;2023-01-01T01:39:49;100867.89;;;13.66;63.59
58967;BME280;44744;51.894;5.080;2023-01-01T01:40:50;100862.10;;;13.65;63.75
58967;BME280;44744;51.894;5.080;2023-01-01T01:41:50;100860.58;;;13.64;63.82
58967;BME280;44744;51.894;5.080;2023-01-01T01:42:50;100865.05;;;13.63;63.78
58967;BME280;44744;51.894;5.080;2023-01-01T01:44:58;100858.74;;;13.62;63.65
58967;BME280;44744;51.894;5.080;2023-01-01T01:47:02;100868.68;;;13.62;63.14
58967;BME280;44744;51.894;5.080;2023-01-01T01:48:02;100870.73;;;13.61;63.29
58967;BME280;44744;51.894;5.080;2023-01-01T01:49:04;100874.73;;;13.59;63.44
58967;BME280;44744;51.894;5.080;2023-01-01T01:50:06;100876.95;;;13.58;63.54
58967;BME280;44744;51.894;5.080;2023-01-01T01:51:07;100879.52;;;13.57;63.59
58967;BME280;44744;51.894;5.080;2023-01-01T01:52:09;100879.27;;;13.55;63.64
58967;BME280;44744;51.894;5.080;2023-01-01T01:54:13;100873.14;;;13.54;63.31
58967;BME280;44744;51.894;5.080;2023-01-01T01:55:15;100882.62;;;13.53;63.58
58967;BME280;44744;51.894;5.080;2023-01-01T01:56:22;100882.30;;;13.53;63.59
58967;BME280;44744;51.894;5.080;2023-01-01T01:57:24;100883.41;;;13.52;63.81
58967;BME280;44744;51.894;5.080;2023-01-01T01:58:25;100879.20;;;13.51;63.65
58967;BME280;44744;51.894;5.080;2023-01-01T01:59:29;100890.27;;;13.50;63.63
58967;BME280;44744;51.894;5.080;2023-01-01T02:00:30;100892.80;;;13.49;63.48
58967;BME280;44744;51.894;5.080;2023-01-01T02:01:30;100895.29;;;13.49;63.37
58967;BME280;44744;51.894;5.080;2023-01-01T02:02:35;100894.95;;;13.49;63.44
58967;BME280;44744;51.894;5.080;2023-01-01T02:04:36;100899.89;;;13.47;63.63
58967;BME280;44744;51.894;5.080;2023-01-01T02:05:36;100895.69;;;13.46;63.58
58967;BME280;44744;51.894;5.080;2023-01-01T02:06:38;100895.94;;;13.45;63.61
58967;BME280;44744;51.894;5.080;2023-01-01T02:07:38;100897.07;;;13.44;63.51
58967;BME280;44744;51.894;5.080;2023-01-01T02:08:38;100900.29;;;13.44;63.54
58967;BME280;44744;51.894;5.080;2023-01-01T02:09:38;100903.54;;;13.43;63.83
58967;BME280;44744;51.894;5.080;2023-01-01T02:10:39;100905.35;;;13.42;63.72
58967;BME280;44744;51.894;5.080;2023-01-01T02:11:39;100900.89;;;13.42;63.66
58967;BME280;44744;51.894;5.080;2023-01-01T02:12:39;100902.66;;;13.43;63.62
58967;BME280;44744;51.894;5.080;2023-01-01T02:13:39;100903.73;;;13.43;63.81
58967;BME280;44744;51.894;5.080;2023-01-01T02:14:40;100901.09;;;13.42;63.81
58967;BME280;44744;51.894;5.080;2023-01-01T02:17:02;100900.13;;;13.44;63.83
58967;BME280;44744;51.894;5.080;2023-01-01T02:18:06;100900.61;;;13.44;63.73
58967;BME280;44744;51.894;5.080;2023-01-01T02:21:44;100909.91;;;13.43;63.57
58967;BME280;44744;51.894;5.080;2023-01-01T02:25:15;100911.91;;;13.42;63.46
58967;BME280;44744;51.894;5.080;2023-01-01T02:29:47;100924.03;;;13.42;63.13
58967;BME280;44744;51.894;5.080;2023-01-01T02:30:51;100928.31;;;13.42;63.26
58967;BME280;44744;51.894;5.080;2023-01-01T02:33:02;100923.95;;;13.41;63.28
58967;BME280;44744;51.894;5.080;2023-01-01T02:34:24;100929.82;;;13.40;63.42
58967;BME280;44744;51.894;5.080;2023-01-01T02:35:29;100929.30;;;13.40;63.16
58967;BME280;44744;51.894;5.080;2023-01-01T02:36:32;100932.33;;;13.40;63.34
58967;BME280;44744;51.894;5.080;2023-01-01T02:37:35;100932.16;;;13.40;63.35
58967;BME280;44744;51.894;5.080;2023-01-01T02:38:36;100935.88;;;13.40;63.17
58967;BME280;44744;51.894;5.080;2023-01-01T02:39:38;100933.16;;;13.41;63.10
58967;BME280;44744;51.894;5.080;2023-01-01T02:40:47;100928.39;;;13.40;62.90
58967;BME280;44744;51.894;5.080;2023-01-01T02:41:49;100933.23;;;13.40;63.29
58967;BME280;44744;51.894;5.080;2023-01-01T02:42:50;100932.74;;;13.39;63.60
58967;BME280;44744;51.894;5.080;2023-01-01T02:43:52;100935.05;;;13.39;63.45
58967;BME280;44744;51.894;5.080;2023-01-01T02:44:53;100932.60;;;13.39;63.34
58967;BME280;44744;51.894;5.080;2023-01-01T02:45:54;100926.37;;;13.39;63.38
58967;BME280;44744;51.894;5.080;2023-01-01T02:46:55;100928.56;;;13.38;63.11
58967;BME280;44744;51.894;5.080;2023-01-01T02:47:55;100924.92;;;13.39;63.12
58967;BME280;44744;51.894;5.080;2023-01-01T02:48:55;100923.02;;;13.39;63.22
58967;BME280;44744;51.894;5.080;2023-01-01T02:50:02;100928.98;;;13.40;62.83
58967;BME280;44744;51.894;5.080;2023-01-01T02:51:27;100930.44;;;13.39;63.21
58967;BME280;44744;51.894;5.080;2023-01-01T02:53:32;100940.20;;;13.39;63.16
58967;BME280;44744;51.894;5.080;2023-01-01T02:54:35;100939.33;;;13.39;63.05
58967;BME280;44744;51.894;5.080;2023-01-01T02:59:07;100939.30;;;13.42;63.03
58967;BME280;44744;51.894;5.080;2023-01-01T03:00:13;100936.79;;;13.42;63.22
58967;BME280;44744;51.894;5.080;2023-01-01T03:10:21;100947.09;;;13.48;62.74
58967;BME280;44744;51.894;5.080;2023-01-01T03:11:20;100947.09;;;13.48;62.65
58967;BME280;44744;51.894;5.080;2023-01-01T03:12:31;100944.95;;;13.48;62.54
58967;BME280;44744;51.894;5.080;2023-01-01T03:14:51;100939.77;;;13.48;62.41
58967;BME280;44744;51.894;5.080;2023-01-01T03:15:58;100939.39;;;13.49;62.20
58967;BME280;44744;51.894;5.080;2023-01-01T03:17:03;100944.18;;;13.48;62.27
58967;BME280;44744;51.894;5.080;2023-01-01T03:18:05;100944.00;;;13.49;62.21
58967;BME280;44744;51.894;5.080;2023-01-01T03:19:15;100950.20;;;13.49;62.11
58967;BME280;44744;51.894;5.080;2023-01-01T03:20:17;100946.72;;;13.48;62.28
58967;BME280;44744;51.894;5.080;2023-01-01T03:21:18;100947.44;;;13.48;62.30
58967;BME280;44744;51.894;5.080;2023-01-01T03:22:20;100952.45;;;13.47;62.42
58967;BME280;44744;51.894;5.080;2023-01-01T03:23:25;100957.23;;;13.47;62.22
58967;BME280;44744;51.894;5.080;2023-01-01T03:24:29;100954.73;;;13.48;62.00
58967;BME280;44744;51.894;5.080;2023-01-01T03:25:31;100955.64;;;13.48;62.12
58967;BME280;44744;51.894;5.080;2023-01-01T03:26:33;100957.80;;;13.47;62.24
58967;BME280;44744;51.894;5.080;2023-01-01T03:27:38;100961.04;;;13.46;62.36
58967;BME280;44744;51.894;5.080;2023-01-01T03:28:43;100957.02;;;13.45;62.39
58967;BME280;44744;51.894;5.080;2023-01-01T03:29:45;100960.08;;;13.45;62.42
58967;BME280;44744;51.894;5.080;2023-01-01T03:30:46;100960.09;;;13.45;62.32
58967;BME280;44744;51.894;5.080;2023-01-01T03:31:49;100953.05;;;13.44;62.31
58967;BME280;44744;51.894;5.080;2023-01-01T03:32:53;100952.23;;;13.43;62.56
58967;BME280;44744;51.894;5.080;2023-01-01T03:34:00;100951.31;;;13.43;62.40
58967;BME280;44744;51.894;5.080;2023-01-01T03:35:02;100956.48;;;13.43;62.49
58967;BME280;44744;51.894;5.080;2023-01-01T03:36:04;100957.06;;;13.42;62.51
58967;BME280;44744;51.894;5.080;2023-01-01T03:37:06;100964.18;;;13.42;62.49
58967;BME280;44744;51.894;5.080;2023-01-01T03:38:09;100970.23;;;13.42;62.47
58967;BME280;44744;51.894;5.080;2023-01-01T03:40:16;100972.37;;;13.42;62.68
58967;BME280;44744;51.894;5.080;2023-01-01T03:42:32;100970.25;;;13.41;62.40
58967;BME280;44744;51.894;5.080;2023-01-01T03:44:34;100974.14;;;13.41;62.90
58967;BME280;44744;51.894;5.080;2023-01-01T03:45:43;100974.52;;;13.41;62.76
58967;BME280;44744;51.894;5.080;2023-01-01T03:46:45;100973.77;;;13.42;62.56
58967;BME280;44744;51.894;5.080;2023-01-01T03:47:45;100977.71;;;13.41;62.60
58967;BME280;44744;51.894;5.080;2023-01-01T03:48:45;100972.92;;;13.41;62.58
58967;BME280;44744;51.894;5.080;2023-01-01T03:49:46;100971.70;;;13.41;62.79
58967;BME280;44744;51.894;5.080;2023-01-01T03:50:58;100974.34;;;13.41;63.09
58967;BME280;44744;51.894;5.080;2023-01-01T03:52:22;100971.85;;;13.41;62.96
58967;BME280;44744;51.894;5.080;2023-01-01T03:53:33;100973.75;;;13.42;63.11
58967;BME280;44744;51.894;5.080;2023-01-01T03:54:48;100981.41;;;13.42;63.16
58967;BME280;44744;51.894;5.080;2023-01-01T03:55:57;100989.40;;;13.42;63.02
58967;BME280;44744;51.894;5.080;2023-01-01T03:58:20;100998.89;;;13.44;62.93
58967;BME280;44744;51.894;5.080;2023-01-01T03:59:25;101004.02;;;13.44;63.08
58967;BME280;44744;51.894;5.080;2023-01-01T04:00:32;101014.14;;;13.44;63.07
58967;BME280;44744;51.894;5.080;2023-01-01T04:01:35;101015.56;;;13.44;63.06
58967;BME280;44744;51.894;5.080;2023-01-01T04:02:41;101016.96;;;13.44;63.09
58967;BME280;44744;51.894;5.080;2023-01-01T04:03:43;101028.16;;;13.44;63.28
58967;BME280;44744;51.894;5.080;2023-01-01T04:04:43;101031.02;;;13.44;63.36
58967;BME280;44744;51.894;5.080;2023-01-01T04:05:44;101037.05;;;13.44;63.42
58967;BME280;44744;51.894;5.080;2023-01-01T04:06:44;101046.70;;;13.43;63.57
58967;BME280;44744;51.894;5.080;2023-01-01T04:07:45;101054.35;;;13.43;63.57
58967;BME280;44744;51.894;5.080;2023-01-01T04:08:46;101052.75;;;13.43;63.80
58967;BME280;44744;51.894;5.080;2023-01-01T04:09:48;101060.27;;;13.42;64.11
58967;BME280;44744;51.894;5.080;2023-01-01T04:10:54;101075.30;;;13.40;64.48
58967;BME280;44744;51.894;5.080;2023-01-01T04:11:55;101067.83;;;13.38;64.91
58967;BME280;44744;51.894;5.080;2023-01-01T04:12:56;101076.90;;;13.34;65.63
58967;BME280;44744;51.894;5.080;2023-01-01T04:13:57;101081.21;;;13.30;66.39
58967;BME280;44744;51.894;5.080;2023-01-01T04:14:57;101076.27;;;13.24;67.55
58967;BME280;44744;51.894;5.080;2023-01-01T04:15:57;101079.20;;;13.14;68.17
58967;BME280;44744;51.894;5.080;2023-01-01T04:16:57;101079.34;;;13.06;69.08
58967;BME280;44744;51.894;5.080;2023-01-01T04:17:58;101088.50;;;12.99;69.88
58967;BME280;44744;51.894;5.080;2023-01-01T04:18:58;101085.57;;;12.88;69.94
58967;BME280;44744;51.894;5.080;2023-01-01T04:19:58;101093.69;;;12.80;70.72
58967;BME280;44744;51.894;5.080;2023-01-01T04:20:58;101091.77;;;12.74;71.47
58967;BME280;44744;51.894;5.080;2023-01-01T04:21:59;101082.85;;;12.65;71.57
58967;BME280;44744;51.894;5.080;2023-01-01T04:22:59;101078.47;;;12.58;72.01
58967;BME280;44744;51.894;5.080;2023-01-01T04:24:00;101075.04;;;12.54;72.17
58967;BME280;44744;51.894;5.080;2023-01-01T04:25:00;101070.81;;;12.47;72.14
58967;BME280;44744;51.894;5.080;2023-01-01T04:26:00;101075.89;;;12.42;72.07
58967;BME280;44744;51.894;5.080;2023-01-01T04:27:00;101075.15;;;12.40;72.25
58967;BME280;44744;51.894;5.080;2023-01-01T04:28:01;101064.63;;;12.38;72.27
58967;BME280;44744;51.894;5.080;2023-01-01T04:29:01;101055.75;;;12.35;72.12
58967;BME280;44744;51.894;5.080;2023-01-01T04:30:02;101053.52;;;12.34;72.22
58967;BME280;44744;51.894;5.080;2023-01-01T04:31:02;101060.12;;;12.33;72.34
58967;BME280;44744;51.894;5.080;2023-01-01T04:32:02;101055.07;;;12.32;72.28
58967;BME280;44744;51.894;5.080;2023-01-01T04:33:02;101059.67;;;12.32;72.31
58967;BME280;44744;51.894;5.080;2023-01-01T04:34:02;101052.59;;;12.32;72.37
58967;BME280;44744;51.894;5.080;2023-01-01T04:35:03;101057.91;;;12.31;72.15
58967;BME280;44744;51.894;5.080;2023-01-01T04:36:04;101061.63;;;12.32;72.09
58967;BME280;44744;51.894;5.080;2023-01-01T04:37:04;101077.58;;;12.32;72.33
58967;BME280;44744;51.894;5.080;2023-01-01T04:38:05;101078.95;;;12.32;72.38
58967;BME280;44744;51.894;5.080;2023-01-01T04:39:05;101074.73;;;12.32;72.30
58967;BME280;44744;51.894;5.080;2023-01-01T04:40:06;101075.57;;;12.33;72.37
58967;BME280;44744;51.894;5.080;2023-01-01T04:41:07;101077.35;;;12.33;72.16
58967;BME280;44744;51.894;5.080;2023-01-01T04:42:08;101077.65;;;12.34;72.23
58967;BME280;44744;51.894;5.080;2023-01-01T04:43:08;101077.05;;;12.35;72.16
58967;BME280;44744;51.894;5.080;2023-01-01T04:44:08;101076.27;;;12.36;72.09
58967;BME280;44744;51.894;5.080;2023-01-01T04:45:08;101074.60;;;12.37;72.12
58967;BME280;44744;51.894;5.080;2023-01-01T04:46:09;101081.31;;;12.38;72.07
58967;BME280;44744;51.894;5.080;2023-01-01T04:47:09;101080.52;;;12.39;72.02
58967;BME280;44744;51.894;5.080;2023-01-01T04:48:09;101076.42;;;12.39;71.92
58967;BME280;44744;51.894;5.080;2023-01-01T04:49:09;101081.31;;;12.41;71.83
58967;BME280;44744;51.894;5.080;2023-01-01T04:50:09;101078.30;;;12.41;71.75
58967;BME280;44744;51.894;5.080;2023-01-01T04:51:10;101077.55;;;12.41;71.69
58967;BME280;44744;51.894;5.080;2023-01-01T04:52:11;101074.83;;;12.42;71.64
58967;BME280;44744;51.894;5.080;2023-01-01T04:53:11;101076.05;;;12.43;71.43
58967;BME280;44744;51.894;5.080;2023-01-01T04:54:11;101080.85;;;12.43;71.42
58967;BME280;44744;51.894;5.080;2023-01-01T04:55:11;101090.52;;;12.44;71.27
58967;BME280;44744;51.894;5.080;2023-01-01T04:56:12;101082.33;;;12.44;71.27
58967;BME280;44744;51.894;5.080;2023-01-01T04:57:13;101078.91;;;12.45;71.20
58967;BME280;44744;51.894;5.080;2023-01-01T04:58:13;101079.98;;;12.45;71.16
58967;BME280;44744;51.894;5.080;2023-01-01T04:59:13;101082.39;;;12.46;71.10
58967;BME280;44744;51.894;5.080;2023-01-01T05:00:13;101085.36;;;12.47;70.87
58967;BME280;44744;51.894;5.080;2023-01-01T05:01:25;101080.16;;;12.48;70.87
58967;BME280;44744;51.894;5.080;2023-01-01T05:02:25;101080.88;;;12.48;70.83
58967;BME280;44744;51.894;5.080;2023-01-01T05:03:26;101078.40;;;12.48;70.93
58967;BME280;44744;51.894;5.080;2023-01-01T05:04:26;101079.23;;;12.49;70.81
58967;BME280;44744;51.894;5.080;2023-01-01T05:05:26;101077.29;;;12.49;70.83
58967;BME280;44744;51.894;5.080;2023-01-01T05:06:27;101078.33;;;12.49;70.84
58967;BME280;44744;51.894;5.080;2023-01-01T05:07:27;101076.02;;;12.49;70.71
58967;BME280;44744;51.894;5.080;2023-01-01T05:08:28;101078.69;;;12.49;70.74
58967;BME280;44744;51.894;5.080;2023-01-01T05:09:28;101084.63;;;12.51;70.54
58967;BME280;44744;51.894;5.080;2023-01-01T05:10:28;101084.05;;;12.51;70.38
58967;BME280;44744;51.894;5.080;2023-01-01T05:11:29;101088.45;;;12.52;70.15
58967;BME280;44744;51.894;5.080;2023-01-01T05:12:29;101089.99;;;12.53;70.02
58967;BME280;44744;51.894;5.080;2023-01-01T05:13:29;101093.52;;;12.53;70.07
58967;BME280;44744;51.894;5.080;2023-01-01T05:14:30;101096.89;;;12.53;69.59
58967;BME280;44744;51.894;5.080;2023-01-01T05:15:30;101102.52;;;12.54;69.16
58967;BME280;44744;51.894;5.080;2023-01-01T05:16:34;101107.85;;;12.54;68.85
58967;BME280;44744;51.894;5.080;2023-01-01T05:17:34;101108.05;;;12.53;68.65
58967;BME280;44744;51.894;5.080;2023-01-01T05:18:35;101105.42;;;12.53;68.55
58967;BME280;44744;51.894;5.080;2023-01-01T05:19:35;101108.26;;;12.53;68.20
58967;BME280;44744;51.894;5.080;2023-01-01T05:20:35;101107.91;;;12.53;67.56
58967;BME280;44744;51.894;5.080;2023-01-01T05:21:35;101116.95;;;12.53;67.47
58967;BME280;44744;51.894;5.080;2023-01-01T05:22:36;101109.92;;;12.52;67.73
58967;BME280;44744;51.894;5.080;2023-01-01T05:23:36;101114.63;;;12.50;67.89
58967;BME280;44744;51.894;5.080;2023-01-01T05:24:36;101115.55;;;12.50;67.76
58967;BME280;44744;51.894;5.080;2023-01-01T05:25:36;101114.38;;;12.48;67.86
58967;BME280;44744;51.894;5.080;2023-01-01T05:26:38;101115.52;;;12.48;67.69
58967;BME280;44744;51.894;5.080;2023-01-01T05:27:39;101115.71;;;12.47;67.53
58967;BME280;44744;51.894;5.080;2023-01-01T05:28:39;101120.53;;;12.46;67.63
58967;BME280;44744;51.894;5.080;2023-01-01T05:29:40;101124.16;;;12.45;67.83
58967;BME280;44744;51.894;5.080;2023-01-01T05:30:40;101128.64;;;12.44;67.50
58967;BME280;44744;51.894;5.080;2023-01-01T05:31:40;101139.91;;;12.43;67.69
58967;BME280;44744;51.894;5.080;2023-01-01T05:32:40;101144.74;;;12.42;67.70
58967;BME280;44744;51.894;5.080;2023-01-01T05:33:40;101144.09;;;12.41;67.31
58967;BME280;44744;51.894;5.080;2023-01-01T05:34:41;101146.85;;;12.39;67.31
58967;BME280;44744;51.894;5.080;2023-01-01T05:35:41;101149.52;;;12.39;66.84
58967;BME280;44744;51.894;5.080;2023-01-01T05:36:41;101146.19;;;12.38;66.50
58967;BME280;44744;51.894;5.080;2023-01-01T05:37:41;101152.28;;;12.37;66.93
58967;BME280;44744;51.894;5.080;2023-01-01T05:38:41;101149.15;;;12.36;66.94
58967;BME280;44744;51.894;5.080;2023-01-01T05:39:42;101153.56;;;12.36;66.75
58967;BME280;44744;51.894;5.080;2023-01-01T05:40:42;101144.00;;;12.36;66.62
58967;BME280;44744;51.894;5.080;2023-01-01T05:41:42;101149.11;;;12.37;66.26
58967;BME280;44744;51.894;5.080;2023-01-01T05:42:42;101146.48;;;12.36;65.87
58967;BME280;44744;51.894;5.080;2023-01-01T05:43:42;101147.93;;;12.36;66.38
58967;BME280;44744;51.894;5.080;2023-01-01T05:44:43;101147.95;;;12.35;66.45
58967;BME280;44744;51.894;5.080;2023-01-01T05:45:43;101156.84;;;12.35;65.80
58967;BME280;44744;51.894;5.080;2023-01-01T05:46:43;101160.08;;;12.34;65.44
58967;BME280;44744;51.894;5.080;2023-01-01T05:47:43;101166.21;;;12.32;65.60
58967;BME280;44744;51.894;5.080;2023-01-01T05:48:44;101167.53;;;12.31;65.73
58967;BME280;44744;51.894;5.080;2023-01-01T05:49:44;101164.60;;;12.29;65.65
58967;BME280;44744;51.894;5.080;2023-01-01T05:50:44;101164.81;;;12.29;65.22
58967;BME280;44744;51.894;5.080;2023-01-01T05:51:44;101167.95;;;12.26;65.10
58967;BME280;44744;51.894;5.080;2023-01-01T05:52:45;101169.27;;;12.25;64.80
58967;BME280;44744;51.894;5.080;2023-01-01T05:53:45;101175.05;;;12.23;64.65
58967;BME280;44744;51.894;5.080;2023-01-01T05:54:45;101177.26;;;12.22;64.44
58967;BME280;44744;51.894;5.080;2023-01-01T05:55:51;101183.40;;;12.20;64.29
58967;BME280;44744;51.894;5.080;2023-01-01T05:56:51;101186.33;;;12.18;64.65
58967;BME280;44744;51.894;5.080;2023-01-01T05:57:51;101189.08;;;12.17;64.82